sensor_id;sensor_type;location;lat;lon;timestamp;temperature;humidity
2729;DHT22;1372;47.956;7.830;2023-07-08T00:00:33;19.40;99.90
2729;DHT22;1372;47.956;7.830;2023-07-08T00:03:02;19.40;99.90
2729;DHT22;1372;47.956;7.830;2023-07-08T00:05:31;19.40;99.90
2729;DHT22;1372;47.956;7.830;2023-07-08T00:08:01;19.40;99.90
2729;DHT22;1372;47.956;7.830;2023-07-08T00:10:30;19.40;99.90
2729;DHT22;1372;47.956;7.830;2023-07-08T00:12:59;19.30;99.90
2729;DHT22;1372;47.956;7.830;2023-07-08T00:15:29;19.30;99.90
2729;DHT22;1372;47.956;7.830;2023-07-08T00:18:01;19.30;99.90
2729;DHT22;1372;47.956;7.830;2023-07-08T00:20:33;19.30;99.90
2729;DHT22;1372;47.956;7.830;2023-07-08T00:23:05;19.30;99.90
2729;DHT22;1372;47.956;7.830;2023-07-08T00:25:34;19.20;99.90
2729;DHT22;1372;47.956;7.830;2023-07-08T00:28:09;19.20;99.90
2729;DHT22;1372;47.956;7.830;2023-07-08T00:30:38;19.10;99.90
2729;DHT22;1372;47.956;7.830;2023-07-08T00:33:08;19.10;99.90
2729;DHT22;1372;47.956;7.830;2023-07-08T00:35:41;19.10;99.90
2729;DHT22;1372;47.956;7.830;2023-07-08T00:38:15;19.20;99.90
2729;DHT22;1372;47.956;7.830;2023-07-08T00:40:52;19.20;99.90
2729;DHT22;1372;47.956;7.830;2023-07-08T00:43:35;19.20;99.90
2729;DHT22;1372;47.956;7.830;2023-07-08T00:46:15;19.20;99.90
2729;DHT22;1372;47.956;7.830;2023-07-08T00:48:54;19.30;99.90
2729;DHT22;1372;47.956;7.830;2023-07-08T00:51:27;19.30;99.90
2729;DHT22;1372;47.956;7.830;2023-07-08T00:53:55;19.30;99.90
2729;DHT22;1372;47.956;7.830;2023-07-08T00:56:26;19.40;99.90
2729;DHT22;1372;47.956;7.830;2023-07-08T00:59:00;19.30;99.90
2729;DHT22;1372;47.956;7.830;2023-07-08T01:01:31;19.20;99.90
2729;DHT22;1372;47.956;7.830;2023-07-08T01:04:06;19.20;99.90
2729;DHT22;1372;47.956;7.830;2023-07-08T01:06:41;19.10;99.90
2729;DHT22;1372;47.956;7.830;2023-07-08T01:09:14;19.20;99.90
2729;DHT22;1372;47.956;7.830;2023-07-08T01:11:44;19.30;99.90
2729;DHT22;1372;47.956;7.830;2023-07-08T01:14:19;19.40;99.90
2729;DHT22;1372;47.956;7.830;2023-07-08T01:16:51;19.40;99.90
2729;DHT22;1372;47.956;7.830;2023-07-08T01:19:21;19.30;99.90
2729;DHT22;1372;47.956;7.830;2023-07-08T01:22:04;19.20;99.90
2729;DHT22;1372;47.956;7.830;2023-07-08T01:24:35;19.30;99.90
2729;DHT22;1372;47.956;7.830;2023-07-08T01:27:10;19.20;99.90
2729;DHT22;1372;47.956;7.830;2023-07-08T01:29:41;19.10;99.90
2729;DHT22;1372;47.956;7.830;2023-07-08T01:32:14;19.00;99.90
2729;DHT22;1372;47.956;7.830;2023-07-08T01:34:46;19.00;99.90
2729;DHT22;1372;47.956;7.830;2023-07-08T01:37:33;19.10;99.90
2729;DHT22;1372;47.956;7.830;2023-07-08T01:40:16;19.20;99.90
2729;DHT22;1372;47.956;7.830;2023-07-08T01:42:53;19.20;99.90
2729;DHT22;1372;47.956;7.830;2023-07-08T01:45:25;19.20;99.90
2729;DHT22;1372;47.956;7.830;2023-07-08T01:47:58;19.10;99.90
2729;DHT22;1372;47.956;7.830;2023-07-08T01:50:29;19.00;99.90
2729;DHT22;1372;47.956;7.830;2023-07-08T01:53:14;19.00;99.90
2729;DHT22;1372;47.956;7.830;2023-07-08T01:55:44;19.10;99.90
2729;DHT22;1372;47.956;7.830;2023-07-08T01:58:21;19.10;99.90
2729;DHT22;1372;47.956;7.830;2023-07-08T02:00:50;19.10;99.90
2729;DHT22;1372;47.956;7.830;2023-07-08T02:03:22;19.00;99.90
2729;DHT22;1372;47.956;7.830;2023-07-08T02:05:53;19.00;99.90
2729;DHT22;1372;47.956;7.830;2023-07-08T02:08:24;19.00;99.90
2729;DHT22;1372;47.956;7.830;2023-07-08T02:10:56;19.00;99.90
2729;DHT22;1372;47.956;7.830;2023-07-08T02:13:26;19.00;99.90
2729;DHT22;1372;47.956;7.830;2023-07-08T02:15:57;18.90;99.90
2729;DHT22;1372;47.956;7.830;2023-07-08T02:18:28;18.80;99.90
2729;DHT22;1372;47.956;7.830;2023-07-08T02:21:05;18.80;99.90
2729;DHT22;1372;47.956;7.830;2023-07-08T02:23:35;19.00;99.90
2729;DHT22;1372;47.956;7.830;2023-07-08T02:26:06;19.10;99.90
2729;DHT22;1372;47.956;7.830;2023-07-08T02:28:35;19.20;99.90
2729;DHT22;1372;47.956;7.830;2023-07-08T02:31:07;19.40;99.90
2729;DHT22;1372;47.956;7.830;2023-07-08T02:33:38;19.70;99.90
2729;DHT22;1372;47.956;7.830;2023-07-08T02:36:09;20.00;99.90
2729;DHT22;1372;47.956;7.830;2023-07-08T02:38:40;20.30;99.90
2729;DHT22;1372;47.956;7.830;2023-07-08T02:41:09;20.60;99.90
2729;DHT22;1372;47.956;7.830;2023-07-08T02:43:38;20.90;99.90
2729;DHT22;1372;47.956;7.830;2023-07-08T02:46:10;21.10;99.90
2729;DHT22;1372;47.956;7.830;2023-07-08T02:48:39;21.20;99.90
2729;DHT22;1372;47.956;7.830;2023-07-08T02:51:10;21.30;99.90
2729;DHT22;1372;47.956;7.830;2023-07-08T02:53:40;21.40;99.90
2729;DHT22;1372;47.956;7.830;2023-07-08T02:56:12;21.50;99.90
2729;DHT22;1372;47.956;7.830;2023-07-08T02:58:41;21.40;99.90
2729;DHT22;1372;47.956;7.830;2023-07-08T03:01:13;21.40;99.90
2729;DHT22;1372;47.956;7.830;2023-07-08T03:03:45;21.40;99.90
2729;DHT22;1372;47.956;7.830;2023-07-08T03:06:14;21.30;99.90
2729;DHT22;1372;47.956;7.830;2023-07-08T03:08:44;21.20;99.90
2729;DHT22;1372;47.956;7.830;2023-07-08T03:11:13;21.10;99.90
2729;DHT22;1372;47.956;7.830;2023-07-08T03:13:45;21.00;99.90
2729;DHT22;1372;47.956;7.830;2023-07-08T03:16:13;21.00;99.90
2729;DHT22;1372;47.956;7.830;2023-07-08T03:18:42;21.00;99.90
2729;DHT22;1372;47.956;7.830;2023-07-08T03:21:18;21.00;99.90
2729;DHT22;1372;47.956;7.830;2023-07-08T03:23:49;21.00;99.90
2729;DHT22;1372;47.956;7.830;2023-07-08T03:26:21;21.10;99.90
2729;DHT22;1372;47.956;7.830;2023-07-08T03:28:55;21.10;99.90
2729;DHT22;1372;47.956;7.830;2023-07-08T03:31:24;21.20;99.90
2729;DHT22;1372;47.956;7.830;2023-07-08T03:33:53;21.40;99.90
2729;DHT22;1372;47.956;7.830;2023-07-08T03:36:24;21.80;99.90
2729;DHT22;1372;47.956;7.830;2023-07-08T03:38:57;22.20;99.90
2729;DHT22;1372;47.956;7.830;2023-07-08T03:41:26;22.40;99.90
2729;DHT22;1372;47.956;7.830;2023-07-08T03:43:57;22.60;99.90
2729;DHT22;1372;47.956;7.830;2023-07-08T03:46:26;22.50;99.90
2729;DHT22;1372;47.956;7.830;2023-07-08T03:48:55;22.50;99.90
2729;DHT22;1372;47.956;7.830;2023-07-08T03:51:32;22.40;99.90
2729;DHT22;1372;47.956;7.830;2023-07-08T03:54:05;22.40;99.90
2729;DHT22;1372;47.956;7.830;2023-07-08T03:56:35;22.30;99.90
2729;DHT22;1372;47.956;7.830;2023-07-08T03:59:04;22.20;99.90
2729;DHT22;1372;47.956;7.830;2023-07-08T04:01:32;22.10;99.90
2729;DHT22;1372;47.956;7.830;2023-07-08T04:04:04;22.00;99.90
2729;DHT22;1372;47.956;7.830;2023-07-08T04:06:35;21.90;99.90
2729;DHT22;1372;47.956;7.830;2023-07-08T04:09:08;21.80;99.90
2729;DHT22;1372;47.956;7.830;2023-07-08T04:11:39;21.70;99.90
2729;DHT22;1372;47.956;7.830;2023-07-08T04:14:11;21.50;99.90
2729;DHT22;1372;47.956;7.830;2023-07-08T04:16:49;21.30;99.90
2729;DHT22;1372;47.956;7.830;2023-07-08T04:19:20;21.10;99.90
2729;DHT22;1372;47.956;7.830;2023-07-08T04:21:50;21.00;99.90
2729;DHT22;1372;47.956;7.830;2023-07-08T04:24:21;20.90;99.90
2729;DHT22;1372;47.956;7.830;2023-07-08T04:26:50;20.70;99.90
2729;DHT22;1372;47.956;7.830;2023-07-08T04:29:23;20.60;99.90
2729;DHT22;1372;47.956;7.830;2023-07-08T04:31:52;20.40;99.90
2729;DHT22;1372;47.956;7.830;2023-07-08T04:34:20;20.30;99.90
2729;DHT22;1372;47.956;7.830;2023-07-08T04:36:49;20.20;99.90
2729;DHT22;1372;47.956;7.830;2023-07-08T04:39:18;20.20;99.90
2729;DHT22;1372;47.956;7.830;2023-07-08T04:41:48;20.10;99.90
2729;DHT22;1372;47.956;7.830;2023-07-08T04:44:17;20.10;99.90
2729;DHT22;1372;47.956;7.830;2023-07-08T04:46:49;20.10;99.90
2729;DHT22;1372;47.956;7.830;2023-07-08T04:49:20;20.00;99.90
2729;DHT22;1372;47.956;7.830;2023-07-08T04:51:50;19.90;99.90
2729;DHT22;1372;47.956;7.830;2023-07-08T04:54:19;19.80;99.90
2729;DHT22;1372;47.956;7.830;2023-07-08T04:56:50;19.70;99.90
2729;DHT22;1372;47.956;7.830;2023-07-08T04:59:23;19.70;99.90
2729;DHT22;1372;47.956;7.830;2023-07-08T05:01:53;19.70;99.90
2729;DHT22;1372;47.956;7.830;2023-07-08T05:04:22;19.70;99.90
2729;DHT22;1372;47.956;7.830;2023-07-08T05:06:51;19.70;99.90
2729;DHT22;1372;47.956;7.830;2023-07-08T05:09:20;19.70;99.90
2729;DHT22;1372;47.956;7.830;2023-07-08T05:11:54;19.60;99.90
2729;DHT22;1372;47.956;7.830;2023-07-08T05:14:25;19.50;99.90
2729;DHT22;1372;47.956;7.830;2023-07-08T05:16:55;19.40;99.90
2729;DHT22;1372;47.956;7.830;2023-07-08T05:19:25;19.30;99.90
2729;DHT22;1372;47.956;7.830;2023-07-08T05:21:53;19.20;99.90
2729;DHT22;1372;47.956;7.830;2023-07-08T05:24:22;19.30;99.90
2729;DHT22;1372;47.956;7.830;2023-07-08T05:26:51;19.30;99.90
2729;DHT22;1372;47.956;7.830;2023-07-08T05:29:22;19.20;99.90
2729;DHT22;1372;47.956;7.830;2023-07-08T05:31:51;19.00;99.90
2729;DHT22;1372;47.956;7.830;2023-07-08T05:34:27;19.00;99.90
2729;DHT22;1372;47.956;7.830;2023-07-08T05:36:59;19.10;99.90
2729;DHT22;1372;47.956;7.830;2023-07-08T05:39:31;19.10;99.90
2729;DHT22;1372;47.956;7.830;2023-07-08T05:42:03;19.00;99.90
2729;DHT22;1372;47.956;7.830;2023-07-08T05:44:34;18.90;99.90
2729;DHT22;1372;47.956;7.830;2023-07-08T05:47:09;18.90;99.90
2729;DHT22;1372;47.956;7.830;2023-07-08T05:49:38;18.90;99.90
2729;DHT22;1372;47.956;7.830;2023-07-08T05:52:07;18.90;99.90
2729;DHT22;1372;47.956;7.830;2023-07-08T05:54:41;18.80;99.90
2729;DHT22;1372;47.956;7.830;2023-07-08T05:57:16;18.80;99.90
2729;DHT22;1372;47.956;7.830;2023-07-08T05:59:52;18.70;99.90
2729;DHT22;1372;47.956;7.830;2023-07-08T06:02:23;18.70;99.90
2729;DHT22;1372;47.956;7.830;2023-07-08T06:04:53;18.70;99.90
2729;DHT22;1372;47.956;7.830;2023-07-08T06:07:29;18.70;99.90
2729;DHT22;1372;47.956;7.830;2023-07-08T06:10:00;18.70;99.90
2729;DHT22;1372;47.956;7.830;2023-07-08T06:12:32;18.50;99.90
2729;DHT22;1372;47.956;7.830;2023-07-08T06:15:03;18.40;99.90
2729;DHT22;1372;47.956;7.830;2023-07-08T06:17:33;18.40;99.90
2729;DHT22;1372;47.956;7.830;2023-07-08T06:20:01;18.40;99.90
2729;DHT22;1372;47.956;7.830;2023-07-08T06:22:30;18.50;99.90
2729;DHT22;1372;47.956;7.830;2023-07-08T06:25:02;18.50;99.90
2729;DHT22;1372;47.956;7.830;2023-07-08T06:27:32;18.60;99.90
2729;DHT22;1372;47.956;7.830;2023-07-08T06:30:03;18.60;99.90
2729;DHT22;1372;47.956;7.830;2023-07-08T06:32:32;18.70;99.90
2729;DHT22;1372;47.956;7.830;2023-07-08T06:35:05;18.70;99.90
2729;DHT22;1372;47.956;7.830;2023-07-08T06:37:36;18.70;99.90
2729;DHT22;1372;47.956;7.830;2023-07-08T06:40:06;18.70;99.90
2729;DHT22;1372;47.956;7.830;2023-07-08T06:42:41;18.70;99.90
2729;DHT22;1372;47.956;7.830;2023-07-08T06:45:12;18.80;99.90
2729;DHT22;1372;47.956;7.830;2023-07-08T06:47:41;19.00;99.90
2729;DHT22;1372;47.956;7.830;2023-07-08T06:50:12;19.00;99.90
2729;DHT22;1372;47.956;7.830;2023-07-08T06:52:41;19.10;99.90
2729;DHT22;1372;47.956;7.830;2023-07-08T06:55:10;19.30;99.90
2729;DHT22;1372;47.956;7.830;2023-07-08T06:57:40;19.30;99.90
2729;DHT22;1372;47.956;7.830;2023-07-08T07:00:12;19.40;99.90
2729;DHT22;1372;47.956;7.830;2023-07-08T07:02:45;19.40;99.90
2729;DHT22;1372;47.956;7.830;2023-07-08T07:05:14;19.40;99.90
2729;DHT22;1372;47.956;7.830;2023-07-08T07:07:50;19.60;99.90
2729;DHT22;1372;47.956;7.830;2023-07-08T07:10:20;19.80;99.90
2729;DHT22;1372;47.956;7.830;2023-07-08T07:12:49;19.70;99.90
2729;DHT22;1372;47.956;7.830;2023-07-08T07:15:21;19.80;99.90
2729;DHT22;1372;47.956;7.830;2023-07-08T07:17:52;19.80;99.90
2729;DHT22;1372;47.956;7.830;2023-07-08T07:20:21;19.90;99.90
2729;DHT22;1372;47.956;7.830;2023-07-08T07:22:52;20.00;99.90
2729;DHT22;1372;47.956;7.830;2023-07-08T07:25:21;19.90;99.90
2729;DHT22;1372;47.956;7.830;2023-07-08T07:27:50;19.90;99.90
2729;DHT22;1372;47.956;7.830;2023-07-08T07:30:21;20.00;99.90
2729;DHT22;1372;47.956;7.830;2023-07-08T07:32:49;20.10;99.90
2729;DHT22;1372;47.956;7.830;2023-07-08T07:35:18;20.20;99.90
2729;DHT22;1372;47.956;7.830;2023-07-08T07:37:47;20.20;99.90
2729;DHT22;1372;47.956;7.830;2023-07-08T07:40:19;20.40;99.90
2729;DHT22;1372;47.956;7.830;2023-07-08T07:42:48;20.30;99.90
2729;DHT22;1372;47.956;7.830;2023-07-08T07:45:17;20.10;99.90
2729;DHT22;1372;47.956;7.830;2023-07-08T07:47:50;20.10;99.90
2729;DHT22;1372;47.956;7.830;2023-07-08T07:50:19;20.10;99.90
2729;DHT22;1372;47.956;7.830;2023-07-08T07:52:48;20.20;99.90
2729;DHT22;1372;47.956;7.830;2023-07-08T07:55:19;20.30;99.90
2729;DHT22;1372;47.956;7.830;2023-07-08T07:57:48;20.40;99.90
2729;DHT22;1372;47.956;7.830;2023-07-08T08:00:20;20.50;99.90
2729;DHT22;1372;47.956;7.830;2023-07-08T08:02:50;20.60;99.90
2729;DHT22;1372;47.956;7.830;2023-07-08T08:05:19;20.60;99.90
2729;DHT22;1372;47.956;7.830;2023-07-08T08:07:48;20.70;99.90
2729;DHT22;1372;47.956;7.830;2023-07-08T08:10:17;20.70;99.90
2729;DHT22;1372;47.956;7.830;2023-07-08T08:12:46;20.70;99.90
2729;DHT22;1372;47.956;7.830;2023-07-08T08:15:20;20.80;99.90
2729;DHT22;1372;47.956;7.830;2023-07-08T08:17:51;20.90;99.90
2729;DHT22;1372;47.956;7.830;2023-07-08T08:20:25;21.00;99.90
2729;DHT22;1372;47.956;7.830;2023-07-08T08:22:54;21.10;99.90
2729;DHT22;1372;47.956;7.830;2023-07-08T08:25:24;21.30;99.90
2729;DHT22;1372;47.956;7.830;2023-07-08T08:27:53;21.30;99.90
2729;DHT22;1372;47.956;7.830;2023-07-08T08:30:22;21.40;99.90
2729;DHT22;1372;47.956;7.830;2023-07-08T08:32:54;21.50;99.90
2729;DHT22;1372;47.956;7.830;2023-07-08T08:35:26;21.50;99.90
2729;DHT22;1372;47.956;7.830;2023-07-08T08:37:55;21.50;99.90
2729;DHT22;1372;47.956;7.830;2023-07-08T08:40:24;21.40;99.90
2729;DHT22;1372;47.956;7.830;2023-07-08T08:42:57;21.40;99.90
2729;DHT22;1372;47.956;7.830;2023-07-08T08:45:30;21.50;99.90
2729;DHT22;1372;47.956;7.830;2023-07-08T08:48:06;21.50;99.90
2729;DHT22;1372;47.956;7.830;2023-07-08T08:50:51;21.60;99.90
2729;DHT22;1372;47.956;7.830;2023-07-08T08:53:23;21.80;99.90
2729;DHT22;1372;47.956;7.830;2023-07-08T08:56:09;21.80;99.90
2729;DHT22;1372;47.956;7.830;2023-07-08T08:58:43;21.90;99.90
2729;DHT22;1372;47.956;7.830;2023-07-08T09:01:15;21.90;99.90
2729;DHT22;1372;47.956;7.830;2023-07-08T09:03:50;21.90;99.90
2729;DHT22;1372;47.956;7.830;2023-07-08T09:06:26;22.00;99.90
2729;DHT22;1372;47.956;7.830;2023-07-08T09:08:57;22.00;99.90
2729;DHT22;1372;47.956;7.830;2023-07-08T09:11:40;22.10;99.90
2729;DHT22;1372;47.956;7.830;2023-07-08T09:14:15;22.20;99.90
2729;DHT22;1372;47.956;7.830;2023-07-08T09:16:56;22.20;99.90
2729;DHT22;1372;47.956;7.830;2023-07-08T09:19:32;22.20;99.90
2729;DHT22;1372;47.956;7.830;2023-07-08T09:22:13;22.20;99.90
2729;DHT22;1372;47.956;7.830;2023-07-08T09:24:49;22.20;99.90
2729;DHT22;1372;47.956;7.830;2023-07-08T09:27:22;22.30;99.90
2729;DHT22;1372;47.956;7.830;2023-07-08T09:29:53;22.40;99.90
2729;DHT22;1372;47.956;7.830;2023-07-08T09:32:26;22.50;99.90
2729;DHT22;1372;47.956;7.830;2023-07-08T09:35:05;22.50;99.90
2729;DHT22;1372;47.956;7.830;2023-07-08T09:37:37;22.60;99.90
2729;DHT22;1372;47.956;7.830;2023-07-08T09:40:16;22.70;99.90
2729;DHT22;1372;47.956;7.830;2023-07-08T09:42:50;22.80;99.90
2729;DHT22;1372;47.956;7.830;2023-07-08T09:45:24;22.80;99.90
2729;DHT22;1372;47.956;7.830;2023-07-08T09:47:54;22.80;99.90
2729;DHT22;1372;47.956;7.830;2023-07-08T09:50:31;22.90;99.90
2729;DHT22;1372;47.956;7.830;2023-07-08T09:53:04;22.90;99.90
2729;DHT22;1372;47.956;7.830;2023-07-08T09:55:34;23.00;99.90
2729;DHT22;1372;47.956;7.830;2023-07-08T09:58:09;23.10;99.90
2729;DHT22;1372;47.956;7.830;2023-07-08T10:00:41;23.10;99.90
2729;DHT22;1372;47.956;7.830;2023-07-08T10:03:19;23.20;99.90
2729;DHT22;1372;47.956;7.830;2023-07-08T10:05:53;23.30;99.90
2729;DHT22;1372;47.956;7.830;2023-07-08T10:08:29;23.50;99.90
2729;DHT22;1372;47.956;7.830;2023-07-08T10:11:13;23.60;99.90
2729;DHT22;1372;47.956;7.830;2023-07-08T10:13:54;23.70;99.90
2729;DHT22;1372;47.956;7.830;2023-07-08T10:16:33;23.90;99.90
2729;DHT22;1372;47.956;7.830;2023-07-08T10:19:09;24.00;99.90
2729;DHT22;1372;47.956;7.830;2023-07-08T10:21:51;24.20;99.90
2729;DHT22;1372;47.956;7.830;2023-07-08T10:24:38;24.30;99.90
2729;DHT22;1372;47.956;7.830;2023-07-08T10:27:21;24.40;99.90
2729;DHT22;1372;47.956;7.830;2023-07-08T10:30:14;24.50;99.90
2729;DHT22;1372;47.956;7.830;2023-07-08T10:33:11;24.60;99.90
2729;DHT22;1372;47.956;7.830;2023-07-08T10:36:02;24.50;99.90
2729;DHT22;1372;47.956;7.830;2023-07-08T10:38:46;24.60;99.90
2729;DHT22;1372;47.956;7.830;2023-07-08T10:41:30;24.70;99.90
2729;DHT22;1372;47.956;7.830;2023-07-08T10:44:09;24.70;99.90
2729;DHT22;1372;47.956;7.830;2023-07-08T10:46:49;24.80;99.90
2729;DHT22;1372;47.956;7.830;2023-07-08T10:49:37;24.80;99.90
2729;DHT22;1372;47.956;7.830;2023-07-08T10:52:31;25.00;99.90
2729;DHT22;1372;47.956;7.830;2023-07-08T10:55:27;25.20;99.90
2729;DHT22;1372;47.956;7.830;2023-07-08T10:58:15;25.20;99.90
2729;DHT22;1372;47.956;7.830;2023-07-08T11:00:58;25.40;99.90
2729;DHT22;1372;47.956;7.830;2023-07-08T11:04:03;25.40;99.90
2729;DHT22;1372;47.956;7.830;2023-07-08T11:06:48;25.50;99.90
2729;DHT22;1372;47.956;7.830;2023-07-08T11:09:23;25.40;99.90
2729;DHT22;1372;47.956;7.830;2023-07-08T11:11:58;25.40;99.90
2729;DHT22;1372;47.956;7.830;2023-07-08T11:14:38;25.50;99.90
2729;DHT22;1372;47.956;7.830;2023-07-08T11:17:14;25.50;99.90
2729;DHT22;1372;47.956;7.830;2023-07-08T11:19:50;25.60;99.90
2729;DHT22;1372;47.956;7.830;2023-07-08T11:22:24;25.60;99.90
2729;DHT22;1372;47.956;7.830;2023-07-08T11:25:00;25.70;99.90
2729;DHT22;1372;47.956;7.830;2023-07-08T11:27:35;25.80;99.90
2729;DHT22;1372;47.956;7.830;2023-07-08T11:30:16;26.10;99.90
2729;DHT22;1372;47.956;7.830;2023-07-08T11:32:58;26.20;99.90
2729;DHT22;1372;47.956;7.830;2023-07-08T11:35:35;26.30;99.90
2729;DHT22;1372;47.956;7.830;2023-07-08T11:38:12;26.50;99.90
2729;DHT22;1372;47.956;7.830;2023-07-08T11:40:52;26.40;99.90
2729;DHT22;1372;47.956;7.830;2023-07-08T11:43:33;26.20;99.90
2729;DHT22;1372;47.956;7.830;2023-07-08T11:46:05;26.20;99.90
2729;DHT22;1372;47.956;7.830;2023-07-08T11:48:40;26.20;99.90
2729;DHT22;1372;47.956;7.830;2023-07-08T11:51:17;26.20;99.90
2729;DHT22;1372;47.956;7.830;2023-07-08T11:54:00;26.30;99.90
2729;DHT22;1372;47.956;7.830;2023-07-08T11:56:48;26.40;99.90
2729;DHT22;1372;47.956;7.830;2023-07-08T11:59:20;26.50;99.90
2729;DHT22;1372;47.956;7.830;2023-07-08T12:01:53;26.50;99.90
2729;DHT22;1372;47.956;7.830;2023-07-08T12:04:29;26.50;99.90
2729;DHT22;1372;47.956;7.830;2023-07-08T12:07:07;26.60;99.90
2729;DHT22;1372;47.956;7.830;2023-07-08T12:09:45;26.80;99.90
2729;DHT22;1372;47.956;7.830;2023-07-08T12:12:23;26.90;99.90
2729;DHT22;1372;47.956;7.830;2023-07-08T12:15:04;27.00;99.90
2729;DHT22;1372;47.956;7.830;2023-07-08T12:17:37;27.30;99.90
2729;DHT22;1372;47.956;7.830;2023-07-08T12:20:18;27.50;99.90
2729;DHT22;1372;47.956;7.830;2023-07-08T12:22:49;27.60;99.90
2729;DHT22;1372;47.956;7.830;2023-07-08T12:25:21;27.70;99.90
2729;DHT22;1372;47.956;7.830;2023-07-08T12:27:51;27.90;99.90
2729;DHT22;1372;47.956;7.830;2023-07-08T12:30:21;27.90;99.90
2729;DHT22;1372;47.956;7.830;2023-07-08T12:32:51;28.00;99.90
2729;DHT22;1372;47.956;7.830;2023-07-08T12:35:23;28.10;99.90
2729;DHT22;1372;47.956;7.830;2023-07-08T12:37:59;28.20;99.90
2729;DHT22;1372;47.956;7.830;2023-07-08T12:40:32;28.20;99.90
2729;DHT22;1372;47.956;7.830;2023-07-08T12:43:01;28.30;99.90
2729;DHT22;1372;47.956;7.830;2023-07-08T12:45:34;28.20;99.90
2729;DHT22;1372;47.956;7.830;2023-07-08T12:48:05;28.20;99.90
2729;DHT22;1372;47.956;7.830;2023-07-08T12:50:34;28.40;99.90
2729;DHT22;1372;47.956;7.830;2023-07-08T12:53:06;28.50;99.90
2729;DHT22;1372;47.956;7.830;2023-07-08T12:55:37;28.40;99.90
2729;DHT22;1372;47.956;7.830;2023-07-08T12:58:15;28.60;99.90
2729;DHT22;1372;47.956;7.830;2023-07-08T13:00:51;28.80;99.90
2729;DHT22;1372;47.956;7.830;2023-07-08T13:03:23;28.80;99.90
2729;DHT22;1372;47.956;7.830;2023-07-08T13:05:56;28.80;99.90
2729;DHT22;1372;47.956;7.830;2023-07-08T13:08:30;28.80;99.90
2729;DHT22;1372;47.956;7.830;2023-07-08T13:11:06;28.70;99.90
2729;DHT22;1372;47.956;7.830;2023-07-08T13:13:37;28.90;99.90
2729;DHT22;1372;47.956;7.830;2023-07-08T13:16:09;29.00;99.90
2729;DHT22;1372;47.956;7.830;2023-07-08T13:18:40;29.10;99.90
2729;DHT22;1372;47.956;7.830;2023-07-08T13:21:14;29.20;99.90
2729;DHT22;1372;47.956;7.830;2023-07-08T13:23:44;29.30;99.90
2729;DHT22;1372;47.956;7.830;2023-07-08T13:26:13;29.30;99.90
2729;DHT22;1372;47.956;7.830;2023-07-08T13:28:43;29.30;99.90
2729;DHT22;1372;47.956;7.830;2023-07-08T13:31:18;29.40;99.90
2729;DHT22;1372;47.956;7.830;2023-07-08T13:33:54;29.50;99.90
2729;DHT22;1372;47.956;7.830;2023-07-08T13:36:33;29.60;99.90
2729;DHT22;1372;47.956;7.830;2023-07-08T13:39:06;29.70;99.90
2729;DHT22;1372;47.956;7.830;2023-07-08T13:41:36;29.70;99.90
2729;DHT22;1372;47.956;7.830;2023-07-08T13:44:07;29.80;99.90
2729;DHT22;1372;47.956;7.830;2023-07-08T13:46:39;29.90;99.90
2729;DHT22;1372;47.956;7.830;2023-07-08T13:49:15;29.90;99.90
2729;DHT22;1372;47.956;7.830;2023-07-08T13:51:49;30.00;99.90
2729;DHT22;1372;47.956;7.830;2023-07-08T13:54:23;30.10;99.90
2729;DHT22;1372;47.956;7.830;2023-07-08T13:56:54;30.10;99.90
2729;DHT22;1372;47.956;7.830;2023-07-08T13:59:26;30.30;99.90
2729;DHT22;1372;47.956;7.830;2023-07-08T14:01:57;30.20;99.90
2729;DHT22;1372;47.956;7.830;2023-07-08T14:04:29;30.40;99.90
2729;DHT22;1372;47.956;7.830;2023-07-08T14:06:59;30.40;99.90
2729;DHT22;1372;47.956;7.830;2023-07-08T14:09:28;30.30;99.90
2729;DHT22;1372;47.956;7.830;2023-07-08T14:11:57;30.40;99.90
2729;DHT22;1372;47.956;7.830;2023-07-08T14:14:31;30.40;99.90
2729;DHT22;1372;47.956;7.830;2023-07-08T14:17:01;30.40;99.90
2729;DHT22;1372;47.956;7.830;2023-07-08T14:19:34;30.60;99.90
2729;DHT22;1372;47.956;7.830;2023-07-08T14:22:16;30.60;99.90
2729;DHT22;1372;47.956;7.830;2023-07-08T14:24:49;30.70;99.90
2729;DHT22;1372;47.956;7.830;2023-07-08T14:27:24;30.80;99.90
2729;DHT22;1372;47.956;7.830;2023-07-08T14:29:55;30.80;99.90
2729;DHT22;1372;47.956;7.830;2023-07-08T14:32:28;30.80;99.90
2729;DHT22;1372;47.956;7.830;2023-07-08T14:35:02;31.00;99.90
2729;DHT22;1372;47.956;7.830;2023-07-08T14:37:43;31.10;99.90
2729;DHT22;1372;47.956;7.830;2023-07-08T14:40:21;30.90;99.90
2729;DHT22;1372;47.956;7.830;2023-07-08T14:43:01;31.00;99.90
2729;DHT22;1372;47.956;7.830;2023-07-08T14:45:38;31.00;99.90
2729;DHT22;1372;47.956;7.830;2023-07-08T14:48:11;31.20;99.90
2729;DHT22;1372;47.956;7.830;2023-07-08T14:50:40;31.20;99.90
2729;DHT22;1372;47.956;7.830;2023-07-08T14:53:13;31.30;99.90
2729;DHT22;1372;47.956;7.830;2023-07-08T14:55:46;31.40;99.90
2729;DHT22;1372;47.956;7.830;2023-07-08T14:58:21;31.40;99.90
2729;DHT22;1372;47.956;7.830;2023-07-08T15:00:51;31.40;99.90
2729;DHT22;1372;47.956;7.830;2023-07-08T15:03:26;31.40;99.90
2729;DHT22;1372;47.956;7.830;2023-07-08T15:05:58;31.40;99.90
2729;DHT22;1372;47.956;7.830;2023-07-08T15:08:31;31.40;99.90
2729;DHT22;1372;47.956;7.830;2023-07-08T15:11:01;31.30;99.90
2729;DHT22;1372;47.956;7.830;2023-07-08T15:13:33;31.40;99.90
2729;DHT22;1372;47.956;7.830;2023-07-08T15:16:02;31.50;99.90
2729;DHT22;1372;47.956;7.830;2023-07-08T15:18:35;31.50;99.90
2729;DHT22;1372;47.956;7.830;2023-07-08T15:21:06;31.50;99.90
2729;DHT22;1372;47.956;7.830;2023-07-08T15:23:36;31.50;99.90
2729;DHT22;1372;47.956;7.830;2023-07-08T15:26:09;31.70;99.90
2729;DHT22;1372;47.956;7.830;2023-07-08T15:28:41;31.60;99.90
2729;DHT22;1372;47.956;7.830;2023-07-08T15:31:15;31.70;99.90
2729;DHT22;1372;47.956;7.830;2023-07-08T15:33:47;31.70;99.90
2729;DHT22;1372;47.956;7.830;2023-07-08T15:36:17;31.70;99.90
2729;DHT22;1372;47.956;7.830;2023-07-08T15:38:46;31.60;99.90
2729;DHT22;1372;47.956;7.830;2023-07-08T15:41:19;31.60;99.90
2729;DHT22;1372;47.956;7.830;2023-07-08T15:43:52;31.50;99.90
2729;DHT22;1372;47.956;7.830;2023-07-08T15:46:28;31.60;99.90
2729;DHT22;1372;47.956;7.830;2023-07-08T15:49:01;31.50;99.90
2729;DHT22;1372;47.956;7.830;2023-07-08T15:51:33;31.50;99.90
2729;DHT22;1372;47.956;7.830;2023-07-08T15:54:03;31.50;99.90
2729;DHT22;1372;47.956;7.830;2023-07-08T15:56:33;31.50;99.90
2729;DHT22;1372;47.956;7.830;2023-07-08T15:59:02;31.50;99.90
2729;DHT22;1372;47.956;7.830;2023-07-08T16:01:32;31.50;99.90
2729;DHT22;1372;47.956;7.830;2023-07-08T16:04:07;31.50;99.90
2729;DHT22;1372;47.956;7.830;2023-07-08T16:06:49;31.50;99.90
2729;DHT22;1372;47.956;7.830;2023-07-08T16:09:18;31.30;99.90
2729;DHT22;1372;47.956;7.830;2023-07-08T16:11:47;31.30;99.90
2729;DHT22;1372;47.956;7.830;2023-07-08T16:14:17;31.20;99.90
2729;DHT22;1372;47.956;7.830;2023-07-08T16:16:47;31.20;99.90
2729;DHT22;1372;47.956;7.830;2023-07-08T16:19:17;31.10;99.90
2729;DHT22;1372;47.956;7.830;2023-07-08T16:21:46;31.00;99.90
2729;DHT22;1372;47.956;7.830;2023-07-08T16:24:14;31.00;99.90
2729;DHT22;1372;47.956;7.830;2023-07-08T16:26:45;31.00;99.90
2729;DHT22;1372;47.956;7.830;2023-07-08T16:29:17;30.90;99.90
2729;DHT22;1372;47.956;7.830;2023-07-08T16:31:47;30.80;99.90
2729;DHT22;1372;47.956;7.830;2023-07-08T16:34:17;30.70;99.90
2729;DHT22;1372;47.956;7.830;2023-07-08T16:36:48;30.70;99.90
2729;DHT22;1372;47.956;7.830;2023-07-08T16:39:17;30.60;99.90